Time;durP1;ratioP1;P1;durP2;ratioP2;P2;SDS_P1;SDS_P2;PMS_P1;PMS_P2;Temp;Humidity;BMP_temperature;BMP_pressure;BME280_temperature;BME280_humidity;BME280_pressure;Samples;Min_cycle;Max_cycle;Signal;HPM_P1;HPM_P2
2022/09/22 00:01:29;;;;;;;2.78;2.25;;;;;;;14.55;52.46;99525.56;5072568;28;20084;-79
2022/09/22 00:03:56;;;;;;;3.25;1.90;;;;;;;14.85;52.90;99597.72;5072652;28;20028;-79
2022/09/22 00:06:34;;;;;;;3.03;2.17;;;;;;;15.20;52.87;99652.34;5073924;28;20511;-78
2022/09/22 00:09:00;;;;;;;4.55;2.17;;;;;;;15.02;52.43;99630.06;5073749;28;20393;-78
2022/09/22 00:11:33;;;;;;;2.13;1.90;;;;;;;14.74;52.35;99590.34;5072510;28;20040;-78
2022/09/22 00:14:08;;;;;;;2.22;2.03;;;;;;;14.53;52.25;99556.81;5073670;28;20060;-78
2022/09/22 00:16:40;;;;;;;2.20;1.95;;;;;;;15.12;52.05;99646.41;5072336;28;20421;-78
2022/09/22 00:19:08;;;;;;;2.08;1.80;;;;;;;14.60;52.20;99571.75;5072423;28;20028;-79
2022/09/22 00:21:34;;;;;;;2.00;1.80;;;;;;;14.56;52.32;99565.19;5073775;28;20024;-79
2022/09/22 00:24:01;;;;;;;2.58;2.00;;;;;;;14.92;52.46;99630.47;5073591;28;20477;-79
2022/09/22 00:26:27;;;;;;;2.35;1.70;;;;;;;14.73;52.43;99618.78;5073688;28;20028;-79
2022/09/22 00:28:53;;;;;;;2.33;2.10;;;;;;;14.80;52.39;99608.97;5072209;28;20062;-79
2022/09/22 00:31:23;;;;;;;2.08;1.90;;;;;;;14.77;52.41;99603.22;5072404;28;20020;-78
2022/09/22 00:33:50;;;;;;;3.20;2.10;;;;;;;14.27;52.66;99547.75;5073419;28;20082;-79
2022/09/22 00:36:17;;;;;;;3.05;1.80;;;;;;;14.91;52.43;99628.84;5073328;28;20052;-79
2022/09/22 00:38:43;;;;;;;4.03;2.00;;;;;;;14.96;51.98;99636.19;5073156;28;20021;-79
2022/09/22 00:41:15;;;;;;;2.08;1.90;;;;;;;14.87;52.46;99620.44;5072172;28;20071;-79
2022/09/22 00:43:45;;;;;;;2.25;2.05;;;;;;;14.89;52.54;99612.28;5073681;28;20092;-79
2022/09/22 00:46:19;;;;;;;2.22;2.03;;;;;;;14.81;52.38;99588.50;5072111;28;20516;-79
2022/09/22 00:48:50;;;;;;;2.83;1.42;;;;;;;14.67;52.63;99585.03;5073303;28;20028;-79
2022/09/22 00:51:20;;;;;;;2.42;2.13;;;;;;;14.61;52.24;99583.19;5073882;28;20048;-79
2022/09/22 00:53:46;;;;;;;1.88;1.77;;;;;;;14.35;52.57;99524.69;5074017;28;20485;-79
2022/09/22 00:56:20;;;;;;;2.25;1.83;;;;;;;14.70;52.45;99575.84;5074176;28;20110;-79
2022/09/22 00:58:55;;;;;;;2.33;2.13;;;;;;;15.02;52.29;99627.41;5071781;28;20021;-79
2022/09/22 01:01:21;;;;;;;2.22;2.00;;;;;;;14.31;52.22;99513.66;5072866;28;20060;-79
2022/09/22 01:03:48;;;;;;;2.20;2.00;;;;;;;14.74;52.04;99588.50;5073110;28;20043;-78
2022/09/22 01:06:19;;;;;;;2.97;2.17;;;;;;;14.25;51.79;99490.56;5072869;28;20028;-79
2022/09/22 01:08:45;;;;;;;1.92;1.83;;;;;;;14.00;51.78;99463.75;5072892;28;20024;-79
2022/09/22 01:11:12;;;;;;;3.20;2.20;;;;;;;14.91;51.60;99613.69;5072647;28;20039;-79
2022/09/22 01:14:16;;;;;;;2.53;2.33;;;;;;;14.78;52.30;99615.50;5071360;28;20409;-79
2022/09/22 01:16:44;;;;;;;2.90;2.55;;;;;;;14.76;52.13;99618.38;5070608;28;21110;-79
2022/09/22 01:19:34;;;;;;;2.92;2.10;;;;;;;14.67;52.31;99614.28;5072594;28;20047;-79
2022/09/22 01:22:56;;;;;;;2.30;2.10;;;;;;;14.57;52.33;99609.34;5075972;28;20023;-80
2022/09/22 01:25:50;;;;;;;4.03;2.40;;;;;;;14.48;52.82;99615.88;5066386;28;20032;-79
2022/09/22 01:28:24;;;;;;;2.85;2.60;;;;;;;14.15;52.28;99564.50;5071428;28;20071;-79
2022/09/22 01:31:05;;;;;;;2.55;2.35;;;;;;;14.61;52.37;99620.38;5072688;28;20511;-79
2022/09/22 01:33:40;;;;;;;2.85;2.38;;;;;;;14.17;52.10;99555.31;5071903;28;20122;-79
2022/09/22 01:36:26;;;;;;;2.75;2.55;;;;;;;14.55;51.91;99608.72;5070868;28;20130;-79
2022/09/22 01:38:51;;;;;;;3.15;2.55;;;;;;;14.60;51.94;99611.59;5071869;28;20052;-79
2022/09/22 01:41:46;;;;;;;3.88;2.85;;;;;;;13.83;51.78;99483.72;5071971;28;20113;-79
2022/09/22 01:44:20;;;;;;;4.07;2.38;;;;;;;14.58;51.69;99600.34;5071857;28;20025;-79
2022/09/22 01:47:01;;;;;;;3.28;2.53;;;;;;;14.45;51.61;99583.56;5071832;28;20054;-79
2022/09/22 01:49:31;;;;;;;2.53;2.33;;;;;;;14.51;51.38;99609.34;5071841;28;20095;-79
2022/09/22 01:52:36;;;;;;;3.35;2.50;;;;;;;14.10;51.61;99549.13;5070386;28;20127;-79
2022/09/22 01:55:07;;;;;;;3.08;2.40;;;;;;;13.68;51.63;99475.94;5029941;28;20458;-79
2022/09/22 01:57:57;;;;;;;3.70;2.80;;;;;;;13.65;51.50;99511.63;5029965;28;20490;-79
2022/09/22 02:00:23;;;;;;;3.33;3.00;;;;;;;14.15;51.53;99575.94;5050037;28;20109;-79
2022/09/22 02:02:58;;;;;;;3.70;3.03;;;;;;;13.81;51.57;99522.91;5072098;28;20029;-80
2022/09/22 02:05:37;;;;;;;4.20;2.88;;;;;;;13.98;51.59;99569.31;5071784;28;20020;-79
2022/09/22 02:08:08;;;;;;;3.40;3.10;;;;;;;13.86;51.52;99541.72;5071805;28;20413;-79
2022/09/22 02:10:39;;;;;;;3.33;3.03;;;;;;;14.17;51.75;99605.75;5071718;28;20021;-79
2022/09/22 02:13:04;;;;;;;3.47;3.13;;;;;;;13.87;51.93;99565.41;5072017;28;20413;-79
2022/09/22 02:18:24;;;;;;;2.97;2.78;;;;;;;13.79;51.52;99532.91;5071757;28;20034;-79
2022/09/22 02:20:50;;;;;;;4.35;3.20;;;;;;;14.19;51.49;99602.91;5071880;28;20038;-79
2022/09/22 02:23:16;;;;;;;3.78;3.20;;;;;;;13.82;51.62;99562.53;5071329;28;20029;-79
2022/09/22 02:25:43;;;;;;;3.50;3.20;;;;;;;14.21;51.50;99599.03;5069994;28;20036;-79
2022/09/22 02:28:13;;;;;;;2.85;2.65;;;;;;;13.72;51.23;99530.22;5069995;28;20520;-79
2022/09/22 02:30:40;;;;;;;3.15;2.95;;;;;;;13.54;51.38;99488.31;5071315;28;20028;-79
2022/09/22 02:33:06;;;;;;;2.92;2.47;;;;;;;14.12;51.24;99581.63;5070026;28;20037;-79
2022/09/22 02:35:36;;;;;;;2.78;2.58;;;;;;;13.62;50.96;99513.88;5070110;28;20124;-79
2022/09/22 02:38:10;;;;;;;2.72;2.50;;;;;;;13.67;51.04;99511.44;5071317;28;20029;-79
2022/09/22 02:40:57;;;;;;;5.55;2.70;;;;;;;14.35;50.71;99605.19;5069979;28;20032;-79
2022/09/22 02:43:49;;;;;;;2.92;2.72;;;;;;;14.31;50.94;99606.59;5069863;28;20421;-79
2022/09/22 02:46:14;;;;;;;;;;;;;;;14.12;51.45;99610.00;5074165;28;20505;-79
2022/09/22 02:48:48;;;;;;;2.78;2.58;;;;;;;14.22;51.38;99608.63;5075263;28;19909;-79
2022/09/22 02:51:14;;;;;;;2.92;2.53;;;;;;;14.12;50.88;99586.94;5075194;28;20035;-79
2022/09/22 02:53:39;;;;;;;2.88;2.30;;;;;;;13.68;50.84;99513.06;5075279;28;20067;-79
2022/09/22 02:56:05;;;;;;;3.22;2.85;;;;;;;14.31;51.08;99617.22;5075233;28;20056;-79
2022/09/22 02:58:30;;;;;;;3.00;2.70;;;;;;;13.59;51.04;99507.13;5075367;28;20032;-79
2022/09/22 03:00:56;;;;;;;3.03;2.72;;;;;;;14.28;50.91;99621.09;5073808;28;20055;-79
2022/09/22 03:03:21;;;;;;;2.55;2.35;;;;;;;13.42;51.04;99475.84;5073994;28;20024;-79
2022/09/22 03:05:47;;;;;;;2.92;2.72;;;;;;;14.17;50.97;99626.19;5075085;28;20024;-79
2022/09/22 03:08:12;;;;;;;2.88;2.67;;;;;;;13.78;51.02;99558.63;5073743;28;20029;-79
2022/09/22 03:10:37;;;;;;;2.80;2.60;;;;;;;13.90;51.01;99566.84;5074879;28;20055;-79
2022/09/22 03:13:03;;;;;;;3.25;2.88;;;;;;;13.80;51.19;99566.38;5074860;28;20039;-79
2022/09/22 03:15:29;;;;;;;2.55;2.35;;;;;;;13.76;50.90;99568.63;5074649;28;20029;-79
2022/09/22 03:17:54;;;;;;;3.75;2.88;;;;;;;13.94;51.15;99598.09;5074875;28;20480;-79
2022/09/22 03:20:20;;;;;;;2.75;2.55;;;;;;;13.33;51.24;99515.75;5073406;28;20035;-79
2022/09/22 03:22:45;;;;;;;2.70;2.50;;;;;;;13.27;51.28;99505.94;5073434;28;20028;-79
2022/09/22 03:25:11;;;;;;;2.70;2.50;;;;;;;13.93;51.45;99600.94;5074502;28;20020;-79
2022/09/22 03:27:37;;;;;;;2.88;2.67;;;;;;;13.52;51.22;99540.75;5074674;28;20025;-79
2022/09/22 03:30:04;;;;;;;3.45;3.15;;;;;;;13.66;51.22;99549.59;5073369;28;20034;-79
2022/09/22 03:32:30;;;;;;;3.15;2.67;;;;;;;13.71;50.95;99559.63;5073314;28;20032;-79
2022/09/22 03:34:56;;;;;;;3.22;2.58;;;;;;;13.63;51.03;99542.03;5074772;28;20024;-79
2022/09/22 03:37:22;;;;;;;2.67;2.47;;;;;;;13.78;51.04;99571.88;5073243;28;20064;-79
2022/09/22 03:39:48;;;;;;;2.63;2.33;;;;;;;12.50;50.86;99368.25;5074429;28;20032;-79
2022/09/22 03:42:13;;;;;;;2.70;2.50;;;;;;;13.97;50.99;99605.66;5074497;28;20032;-79
2022/09/22 03:44:39;;;;;;;2.42;2.22;;;;;;;14.00;50.82;99599.94;5074359;28;20025;-79
2022/09/22 03:47:04;;;;;;;2.58;2.30;;;;;;;13.62;50.77;99535.91;5074316;28;20416;-79
2022/09/22 03:49:30;;;;;;;3.10;2.80;;;;;;;14.21;50.66;99625.59;5073164;28;20028;-79
2022/09/22 03:51:56;;;;;;;2.53;2.33;;;;;;;13.85;50.54;99574.56;5072945;28;20028;-78
2022/09/22 03:54:21;;;;;;;3.22;2.92;;;;;;;14.19;50.60;99624.97;5074007;28;20028;-79
2022/09/22 03:56:47;;;;;;;2.83;2.63;;;;;;;13.72;50.37;99564.72;5072463;28;20104;-79
2022/09/22 03:59:13;;;;;;;2.60;2.40;;;;;;;13.50;50.66;99520.75;5074104;28;20052;-79
2022/09/22 04:01:39;;;;;;;2.85;2.65;;;;;;;14.17;50.60;99644.75;5072614;28;20108;-79
2022/09/22 04:04:04;;;;;;;2.88;2.47;;;;;;;14.15;50.55;99633.53;5073938;28;20077;-79
2022/09/22 04:06:30;;;;;;;2.63;2.42;;;;;;;14.02;50.88;99604.25;5073947;28;20436;-79
2022/09/22 04:08:56;;;;;;;2.67;2.47;;;;;;;14.19;50.53;99632.09;5073774;28;20029;-79
2022/09/22 04:11:23;;;;;;;2.40;2.22;;;;;;;13.82;50.41;99577.63;5072529;28;20056;-79
2022/09/22 04:13:49;;;;;;;2.70;2.50;;;;;;;13.72;50.46;99567.38;5072255;28;20398;-79
2022/09/22 04:16:14;;;;;;;2.67;2.47;;;;;;;13.63;50.53;99571.22;5072185;28;20035;-79
2022/09/22 04:18:40;;;;;;;2.53;2.33;;;;;;;14.04;50.63;99645.50;5072623;28;20031;-78
2022/09/22 04:21:06;;;;;;;2.55;2.35;;;;;;;13.33;50.60;99523.69;5072387;28;20024;-79
2022/09/22 04:23:31;;;;;;;2.40;2.15;;;;;;;14.09;50.46;99643.06;5072173;28;20116;-79
2022/09/22 04:25:57;;;;;;;2.78;2.22;;;;;;;13.85;50.36;99599.28;5073330;28;20064;-79
2022/09/22 04:28:23;;;;;;;2.97;2.45;;;;;;;13.74;50.41;99575.97;5072039;28;20016;-79
2022/09/22 04:30:49;;;;;;;2.33;1.95;;;;;;;13.85;50.36;99609.91;5073288;28;20090;-79
2022/09/22 04:33:16;;;;;;;3.20;2.10;;;;;;;14.07;50.62;99638.97;5073265;28;20029;-79
2022/09/22 04:35:41;;;;;;;3.78;2.30;;;;;;;13.63;50.47;99558.75;5073143;28;20107;-79
2022/09/22 04:38:07;;;;;;;2.33;2.13;;;;;;;13.84;50.46;99602.94;5072093;28;20162;-79
2022/09/22 04:40:33;;;;;;;2.22;2.10;;;;;;;13.58;50.50;99560.38;5075389;28;20028;-79
2022/09/22 04:42:58;;;;;;;2.85;2.63;;;;;;;13.46;50.57;99525.63;5075760;28;20112;-79
2022/09/22 04:45:25;;;;;;;3.00;2.65;;;;;;;13.72;50.38;99574.50;5073103;28;20103;-79
2022/09/22 04:47:51;;;;;;;2.53;2.33;;;;;;;14.15;50.29;99633.53;5073041;28;20558;-79
2022/09/22 04:50:19;;;;;;;3.08;2.80;;;;;;;13.75;50.40;99574.94;5071661;28;20496;-79
2022/09/22 04:52:50;;;;;;;2.85;2.65;;;;;;;14.09;50.65;99642.25;5072916;28;20493;-79
2022/09/22 04:55:16;;;;;;;3.00;2.72;;;;;;;13.78;50.58;99579.03;5073087;28;20024;-79
2022/09/22 04:57:52;;;;;;;3.20;2.90;;;;;;;13.99;50.64;99616.88;5073035;28;20035;-79
2022/09/22 05:00:20;;;;;;;3.45;2.80;;;;;;;14.12;50.71;99626.78;5072917;28;20052;-79
2022/09/22 05:02:45;;;;;;;3.00;2.70;;;;;;;14.08;50.98;99638.78;5072879;28;20459;-79
2022/09/22 05:05:11;;;;;;;3.40;2.88;;;;;;;14.04;51.00;99629.56;5071467;28;20025;-80
2022/09/22 05:07:46;;;;;;;4.25;3.08;;;;;;;14.04;50.86;99626.09;5072238;28;20063;-79
2022/09/22 05:10:13;;;;;;;3.40;3.10;;;;;;;13.63;50.78;99579.16;5076450;28;20556;-79
2022/09/22 05:12:43;;;;;;;3.05;2.70;;;;;;;13.54;50.78;99554.66;5076144;28;20028;-79
2022/09/22 05:15:11;;;;;;;4.68;3.13;;;;;;;14.10;50.41;99614.69;5073137;28;20033;-79
2022/09/22 05:17:37;;;;;;;4.32;2.97;;;;;;;13.96;50.53;99587.28;5072606;28;20067;-79
2022/09/22 05:20:06;;;;;;;3.50;3.20;;;;;;;14.14;50.54;99624.75;5072731;28;20078;-79
2022/09/22 05:22:32;;;;;;;3.45;3.13;;;;;;;13.75;50.62;99551.06;5072821;28;20028;-79
2022/09/22 05:24:57;;;;;;;2.92;2.72;;;;;;;14.26;50.87;99647.03;5071126;28;20020;-78
2022/09/22 05:27:23;;;;;;;3.00;2.80;;;;;;;13.96;50.68;99643.84;5071191;28;20052;-79
2022/09/22 05:29:48;;;;;;;3.47;3.17;;;;;;;13.32;50.65;99492.91;5070995;28;20039;-79
2022/09/22 05:32:14;;;;;;;3.83;3.50;;;;;;;14.10;50.60;99617.34;5072282;28;20021;-79
2022/09/22 05:34:40;;;;;;;3.88;3.58;;;;;;;14.32;50.55;99637.47;5070839;28;20408;-78
2022/09/22 05:37:05;;;;;;;4.65;3.15;;;;;;;14.03;50.32;99579.34;5072203;28;20028;-79
2022/09/22 05:39:31;;;;;;;5.40;3.25;;;;;;;14.13;50.48;99615.13;5072047;28;20028;-79
2022/09/22 05:41:56;;;;;;;6.15;3.03;;;;;;;13.80;50.34;99548.63;5072113;28;20495;-78
2022/09/22 05:44:22;;;;;;;3.88;3.58;;;;;;;14.22;50.41;99626.41;5071716;28;20112;-79
2022/09/22 05:46:48;;;;;;;4.13;3.67;;;;;;;14.05;50.63;99598.53;5071771;28;20051;-79
2022/09/22 05:49:14;;;;;;;4.65;3.30;;;;;;;14.11;50.48;99619.78;5071739;28;20059;-79
2022/09/22 05:51:39;;;;;;;3.95;3.20;;;;;;;14.12;50.94;99618.81;5071674;28;20419;-78
2022/09/22 05:54:04;;;;;;;3.60;3.30;;;;;;;13.69;50.67;99562.47;5071770;28;20083;-79
2022/09/22 05:56:30;;;;;;;4.50;3.50;;;;;;;14.19;50.86;99638.25;5071910;28;20078;-79
2022/09/22 05:58:56;;;;;;;4.20;3.80;;;;;;;14.41;50.74;99654.84;5071624;28;20033;-79
2022/09/22 06:01:21;;;;;;;4.32;3.80;;;;;;;14.14;50.49;99608.81;5071483;28;20070;-79
2022/09/22 06:03:47;;;;;;;3.35;3.05;;;;;;;14.55;50.62;99682.31;5071713;28;20046;-79
2022/09/22 06:06:16;;;;;;;4.07;3.75;;;;;;;14.25;50.52;99631.31;5070402;28;20059;-79
2022/09/22 06:08:42;;;;;;;3.67;3.33;;;;;;;13.88;50.38;99543.16;5070283;28;20028;-79
2022/09/22 06:11:07;;;;;;;3.95;3.65;;;;;;;14.40;50.16;99629.31;5071747;28;20016;-79
2022/09/22 06:13:33;;;;;;;4.00;3.60;;;;;;;13.97;50.33;99565.84;5071618;28;20483;-79
2022/09/22 06:16:02;;;;;;;4.13;3.22;;;;;;;14.31;50.51;99628.69;5071386;28;20485;-79
2022/09/22 06:18:30;;;;;;;4.35;3.08;;;;;;;13.63;50.55;99510.19;5071401;28;20077;-79
2022/09/22 06:20:56;;;;;;;3.33;3.10;;;;;;;14.72;50.36;99672.13;5071255;28;20052;-79
2022/09/22 06:23:22;;;;;;;3.97;3.33;;;;;;;14.72;50.72;99677.44;5071253;28;20033;-79
2022/09/22 06:25:47;;;;;;;5.35;3.88;;;;;;;14.74;50.55;99678.06;5071271;28;20082;-79
2022/09/22 06:28:13;;;;;;;5.20;3.22;;;;;;;14.52;50.36;99651.66;5071172;28;20033;-79
2022/09/22 06:30:39;;;;;;;4.25;3.85;;;;;;;14.34;50.64;99610.69;5071236;28;20025;-79
2022/09/22 06:33:06;;;;;;;4.00;3.22;;;;;;;14.61;50.49;99645.13;5071265;28;20021;-78
2022/09/22 06:35:37;;;;;;;4.25;3.85;;;;;;;14.82;50.53;99675.22;5071232;28;20082;-79
2022/09/22 06:38:05;;;;;;;4.07;3.40;;;;;;;14.82;50.50;99669.91;5071561;28;20490;-79
2022/09/22 06:40:32;;;;;;;3.65;3.35;;;;;;;14.69;50.51;99648.63;5071119;28;20090;-79
2022/09/22 06:43:00;;;;;;;3.28;2.95;;;;;;;14.90;50.57;99665.22;5069782;28;20027;-79
2022/09/22 06:45:26;;;;;;;3.47;2.88;;;;;;;14.99;50.40;99679.16;5071044;28;20504;-79
2022/09/22 06:48:01;;;;;;;3.17;2.88;;;;;;;14.64;50.42;99612.00;5071138;28;20028;-80
2022/09/22 06:50:30;;;;;;;4.78;3.10;;;;;;;14.69;50.45;99628.16;5071378;28;20093;-79
2022/09/22 06:53:00;;;;;;;3.42;3.05;;;;;;;14.63;50.50;99608.53;5071187;28;20028;-79
2022/09/22 06:55:30;;;;;;;3.30;3.10;;;;;;;15.26;50.47;99678.13;5071382;28;20028;-79
2022/09/22 06:57:59;;;;;;;3.80;3.50;;;;;;;15.37;50.11;99687.34;5071087;28;20028;-79
2022/09/22 07:00:30;;;;;;;4.13;3.40;;;;;;;15.10;50.36;99638.66;5069568;28;20051;-79
2022/09/22 07:03:03;;;;;;;3.22;2.78;;;;;;;15.02;50.13;99609.59;5071121;28;20119;-79
2022/09/22 07:05:29;;;;;;;3.38;2.78;;;;;;;14.53;49.66;99533.72;5070828;28;20036;-79
2022/09/22 07:07:55;;;;;;;2.92;2.72;;;;;;;13.74;49.45;99395.53;5070787;28;20024;-79
2022/09/22 07:10:20;;;;;;;3.67;3.35;;;;;;;13.79;49.91;99403.69;5070646;28;20464;-79
2022/09/22 07:12:47;;;;;;;5.25;3.60;;;;;;;14.93;49.74;99582.41;5070792;28;20025;-79
2022/09/22 07:15:13;;;;;;;3.90;3.50;;;;;;;15.04;50.03;99588.94;5069377;28;20025;-79
2022/09/22 07:17:39;;;;;;;3.40;3.10;;;;;;;15.39;49.66;99625.94;5070691;28;20024;-79
2022/09/22 07:20:07;;;;;;;3.08;2.78;;;;;;;15.88;49.50;99676.88;5070714;28;20028;-79
2022/09/22 07:22:33;;;;;;;2.80;2.53;;;;;;;15.46;48.85;99611.59;5069496;28;20020;-79
2022/09/22 07:25:01;;;;;;;3.10;2.85;;;;;;;16.03;48.95;99684.63;5069499;28;20020;-79
2022/09/22 07:27:26;;;;;;;2.97;2.67;;;;;;;15.70;48.50;99635.97;5070800;28;20058;-79
2022/09/22 07:29:53;;;;;;;3.20;3.00;;;;;;;15.58;48.72;99598.50;5070835;28;20059;-79
2022/09/22 07:32:20;;;;;;;7.28;3.45;;;;;;;16.01;48.38;99670.69;5073254;28;20027;-78
2022/09/22 07:34:46;;;;;;;3.58;3.28;;;;;;;16.31;48.47;99694.13;5073047;28;20028;-79
2022/09/22 07:37:14;;;;;;;3.33;3.03;;;;;;;15.53;48.01;99556.53;5074458;28;20104;-79
2022/09/22 07:39:42;;;;;;;2.83;2.63;;;;;;;16.05;47.97;99650.59;5074593;28;20085;-79
2022/09/22 07:42:07;;;;;;;2.88;2.67;;;;;;;16.44;47.72;99694.94;5074347;28;20031;-79
2022/09/22 07:48:34;;;;;;;3.42;3.05;;;;;;;15.60;47.82;99555.72;5074589;28;20101;-79
2022/09/22 07:50:03;;;;;;;2.55;2.30;;;;;;;16.49;47.60;99700.44;5074221;28;20111;-78
2022/09/22 07:52:29;;;;;;;3.15;2.45;;;;;;;16.29;47.23;99658.91;5072748;28;20527;-78
2022/09/22 07:54:54;;;;;;;2.50;2.30;;;;;;;16.35;46.62;99644.72;5074051;28;20028;-79
2022/09/22 07:57:19;;;;;;;2.30;2.10;;;;;;;16.08;46.26;99590.75;5072823;28;20518;-79
2022/09/22 07:59:45;;;;;;;2.38;2.17;;;;;;;16.37;46.46;99622.19;5074011;28;20072;-79
2022/09/22 08:02:10;;;;;;;2.83;2.55;;;;;;;16.11;45.97;99575.16;5072731;28;20556;-79
2022/09/22 08:04:36;;;;;;;2.45;2.25;;;;;;;16.96;45.59;99708.19;5073860;28;20021;-79
2022/09/22 08:07:01;;;;;;;3.70;1.88;;;;;;;17.05;45.00;99706.91;5073873;28;20417;-78
2022/09/22 08:09:28;;;;;;;2.53;2.15;;;;;;;17.01;44.89;99682.50;5072373;28;20032;-78
2022/09/22 08:11:54;;;;;;;1.70;1.60;;;;;;;16.87;44.78;99634.81;5073612;28;20121;-79
2022/09/22 08:14:22;;;;;;;1.88;1.77;;;;;;;17.36;44.04;99706.91;5072271;28;20496;-79
2022/09/22 08:16:50;;;;;;;4.22;2.15;;;;;;;17.38;44.13;99702.16;5073841;28;20107;-79
2022/09/22 08:19:17;;;;;;;2.22;2.10;;;;;;;16.89;44.05;99624.75;5073453;28;20419;-79
2022/09/22 08:21:44;;;;;;;3.55;2.10;;;;;;;16.77;43.46;99577.47;5073639;28;20056;-78
2022/09/22 08:24:12;;;;;;;4.22;1.70;;;;;;;17.21;43.31;99638.88;5072243;28;20108;-79
2022/09/22 08:26:39;;;;;;;2.10;1.50;;;;;;;17.18;42.61;99601.97;5073572;28;20467;-79
2022/09/22 08:29:06;;;;;;;1.92;1.42;;;;;;;17.53;42.08;99639.59;5073471;28;20033;-79
2022/09/22 08:31:33;;;;;;;1.20;1.10;;;;;;;17.65;41.72;99678.72;5073478;28;20470;-79
2022/09/22 08:33:58;;;;;;;2.22;1.67;;;;;;;17.47;41.77;99611.94;5073351;28;20493;-79
2022/09/22 08:36:28;;;;;;;1.60;1.50;;;;;;;18.07;41.33;99711.81;5076150;28;20035;-79
2022/09/22 08:38:54;;;;;;;1.33;1.23;;;;;;;17.78;41.02;99632.38;5076664;28;20078;-79
2022/09/22 08:41:37;;;;;;;2.05;1.45;;;;;;;18.35;39.89;99684.56;5074369;28;20038;-78
2022/09/22 08:44:02;;;;;;;5.07;1.60;;;;;;;18.49;40.47;99684.38;5070802;28;20103;-79
2022/09/22 08:46:32;;;;;;;2.97;1.60;;;;;;;18.48;40.21;99683.56;5072035;28;20111;-79
2022/09/22 08:51:57;;;;;;;1.40;1.30;;;;;;;18.41;39.86;99626.69;5073392;28;20547;-79
2022/09/22 08:54:26;;;;;;;3.42;1.77;;;;;;;18.94;39.74;99671.44;5072831;28;20063;-79
2022/09/22 08:57:04;;;;;;;1.55;1.42;;;;;;;18.42;39.25;99564.16;5072893;28;20086;-79
2022/09/22 08:59:41;;;;;;;2.70;1.30;;;;;;;19.16;38.72;99679.75;5072704;28;20059;-79
2022/09/22 09:02:36;;;;;;;2.13;1.52;;;;;;;19.09;38.81;99641.56;5071335;28;20028;-79
2022/09/22 09:05:21;;;;;;;1.55;1.42;;;;;;;19.61;37.69;99658.66;5072438;28;20020;-79
2022/09/22 09:08:11;;;;;;;2.35;1.40;;;;;;;19.79;37.20;99663.06;5071278;28;20066;-79
2022/09/22 09:11:06;;;;;;;2.30;1.20;;;;;;;19.88;36.88;99661.63;5072355;28;20028;-79
2022/09/22 09:14:03;;;;;;;1.08;1.00;;;;;;;19.97;36.81;99649.50;5072590;28;20093;-79
2022/09/22 09:16:43;;;;;;;1.42;1.02;;;;;;;19.83;36.76;99611.44;5072700;28;20094;-79
2022/09/22 09:19:27;;;;;;;1.42;1.23;;;;;;;19.95;35.88;99581.94;5071116;28;20428;-79
2022/09/22 09:21:59;;;;;;;1.20;1.10;;;;;;;20.00;35.87;99584.69;5072424;28;20016;-79
2022/09/22 09:24:31;;;;;;;6.38;1.60;;;;;;;20.20;35.65;99595.84;5072343;28;20107;-79
2022/09/22 09:27:07;;;;;;;1.63;1.10;;;;;;;20.56;35.57;99636.75;5072437;28;20604;-79
2022/09/22 09:29:40;;;;;;;1.35;1.13;;;;;;;20.78;35.11;99637.69;5070872;28;20119;-79
2022/09/22 09:32:17;;;;;;;4.15;1.33;;;;;;;20.46;34.84;99573.03;5070852;28;20059;-79
2022/09/22 09:34:48;;;;;;;2.10;1.10;;;;;;;20.41;34.68;99547.97;5072398;28;20043;-79
2022/09/22 09:37:15;;;;;;;1.35;1.25;;;;;;;21.12;34.41;99627.81;5070906;28;20028;-79
2022/09/22 09:39:43;;;;;;;1.10;1.00;;;;;;;21.26;33.84;99639.06;5072044;28;20032;-78
2022/09/22 09:42:32;;;;;;;1.77;1.10;;;;;;;21.55;33.52;99635.22;5071877;28;20026;-78
2022/09/22 09:45:01;;;;;;;1.35;1.25;;;;;;;21.93;33.67;99633.56;5072044;28;20020;-79
2022/09/22 09:47:50;;;;;;;1.42;1.25;;;;;;;22.10;32.51;99636.22;5071864;28;20043;-79
2022/09/22 09:50:16;;;;;;;2.35;1.42;;;;;;;22.24;32.76;99615.13;5070295;28;20034;-79
2022/09/22 09:52:41;;;;;;;1.15;0.93;;;;;;;22.05;33.03;99615.47;5071742;28;20036;-79
2022/09/22 09:55:24;;;;;;;2.45;1.38;;;;;;;21.59;32.97;99624.78;5068798;28;20060;-79
2022/09/22 09:58:09;;;;;;;2.17;1.23;;;;;;;21.32;34.06;99632.72;5070448;28;20032;-79
2022/09/22 10:00:55;;;;;;;1.02;0.80;;;;;;;20.75;33.21;99506.69;5071683;28;20128;-78
2022/09/22 10:03:28;;;;;;;1.35;1.25;;;;;;;21.26;33.10;99550.44;5071907;28;20090;-79
2022/09/22 10:05:59;;;;;;;1.13;1.02;;;;;;;21.80;32.64;99631.25;5071816;28;20386;-78
2022/09/22 10:08:26;;;;;;;1.25;1.15;;;;;;;21.99;32.81;99631.75;5070187;28;20024;-79
2022/09/22 10:10:57;;;;;;;1.38;1.20;;;;;;;21.98;32.38;99632.81;5070229;28;20044;-78
2022/09/22 10:13:35;;;;;;;1.38;1.25;;;;;;;21.93;32.74;99622.00;5072100;28;20447;-79
2022/09/22 10:16:06;;;;;;;1.40;1.30;;;;;;;21.67;32.45;99597.50;5071566;28;20516;-78
2022/09/22 10:18:35;;;;;;;1.08;0.95;;;;;;;21.64;32.62;99613.31;5071546;28;20032;-79
2022/09/22 10:21:02;;;;;;;1.10;1.00;;;;;;;21.74;32.28;99624.19;5071567;28;20581;-78
2022/09/22 10:23:30;;;;;;;1.77;1.05;;;;;;;21.59;32.51;99614.03;5070520;28;20038;-77
2022/09/22 10:26:12;;;;;;;1.08;1.08;;;;;;;21.79;32.50;99608.94;5071376;28;20046;-79
2022/09/22 10:28:38;;;;;;;1.70;1.08;;;;;;;22.05;31.85;99560.88;5071360;28;20639;-79
2022/09/22 10:31:03;;;;;;;1.02;0.88;;;;;;;22.48;31.46;99576.13;5070147;28;20409;-79
2022/09/22 10:33:29;;;;;;;2.03;1.20;;;;;;;23.05;31.02;99600.63;5071325;28;20033;-78
2022/09/22 10:36:02;;;;;;;1.48;1.33;;;;;;;23.33;30.70;99612.13;5071283;28;20040;-78
2022/09/22 10:38:31;;;;;;;2.08;1.30;;;;;;;23.32;30.35;99605.91;5071340;28;20021;-78
2022/09/22 10:41:11;;;;;;;1.90;1.25;;;;;;;23.48;30.35;99608.72;5069874;28;20617;-78
2022/09/22 10:43:55;;;;;;;2.67;1.42;;;;;;;23.71;29.69;99608.31;5071294;28;20445;-79
2022/09/22 10:46:48;;;;;;;1.60;1.50;;;;;;;23.95;29.78;99606.84;5070011;28;20507;-79
2022/09/22 10:49:31;;;;;;;2.17;1.23;;;;;;;24.04;28.73;99610.66;5071559;28;20048;-79
2022/09/22 10:52:07;;;;;;;1.00;0.90;;;;;;;23.62;29.40;99609.91;5071110;28;20032;-77
2022/09/22 10:54:40;;;;;;;1.13;1.02;;;;;;;23.56;29.61;99610.94;5071123;28;20025;-78
2022/09/22 10:57:14;;;;;;;2.00;1.00;;;;;;;23.29;29.61;99541.78;5071169;28;20099;-77
2022/09/22 11:00:13;;;;;;;1.13;1.02;;;;;;;23.38;28.38;99572.56;5069742;28;20493;-79
2022/09/22 11:03:07;;;;;;;0.90;0.77;;;;;;;23.71;28.26;99619.09;5071260;28;20028;-77
2022/09/22 11:14:47;;;;;;;1.73;1.10;;;;;;;21.99;30.56;99635.25;5075016;28;20039;-79
2022/09/22 11:17:25;;;;;;;1.63;0.93;;;;;;;21.74;32.48;99626.88;5073657;28;20017;-79
2022/09/22 11:19:57;;;;;;;2.58;1.45;;;;;;;21.62;32.66;99634.22;5075070;28;20025;-79
2022/09/22 11:22:59;;;;;;;3.42;1.33;;;;;;;22.12;32.35;99624.16;5075032;28;20016;-78
2022/09/22 11:25:40;;;;;;;1.88;1.50;;;;;;;22.69;31.67;99626.38;5074978;28;20021;-78
2022/09/22 11:28:42;;;;;;;1.60;1.20;;;;;;;22.19;31.58;99548.66;5074701;28;20031;-79
2022/09/22 11:31:28;;;;;;;2.30;1.20;;;;;;;22.16;31.72;99601.06;5072028;28;20036;-79
2022/09/22 11:34:18;;;;;;;1.70;1.60;;;;;;;22.06;31.90;99643.16;5074346;28;20025;-78
2022/09/22 11:37:26;;;;;;;1.00;0.80;;;;;;;21.69;32.72;99613.38;5074539;28;20047;-78
2022/09/22 11:40:10;;;;;;;2.80;1.13;;;;;;;21.95;32.40;99641.38;5073191;28;20477;-77
2022/09/22 11:42:59;;;;;;;3.75;1.17;;;;;;;22.18;32.74;99650.03;5074443;28;20172;-79
2022/09/22 11:45:49;;;;;;;2.20;1.45;;;;;;;22.64;31.96;99647.88;5074266;28;20062;-77
2022/09/22 11:48:26;;;;;;;1.08;0.98;;;;;;;22.97;31.09;99648.72;5074353;28;20032;-78
2022/09/22 11:50:55;;;;;;;1.00;0.90;;;;;;;22.93;31.44;99640.34;5074193;28;20029;-78
2022/09/22 11:53:32;;;;;;;1.10;1.00;;;;;;;22.69;32.16;99636.34;5074061;28;20020;-78
2022/09/22 11:56:05;;;;;;;1.92;1.17;;;;;;;22.35;32.52;99650.00;5072878;28;20116;-78
2022/09/22 11:58:32;;;;;;;2.20;1.58;;;;;;;21.66;33.08;99587.81;5072611;28;20103;-79
2022/09/22 12:01:07;;;;;;;1.83;1.70;;;;;;;21.32;33.46;99579.00;5073722;28;20040;-79
2022/09/22 12:03:39;;;;;;;2.00;1.55;;;;;;;21.34;33.57;99605.59;5072553;28;20021;-78
2022/09/22 12:06:09;;;;;;;1.95;1.30;;;;;;;20.34;33.53;99483.75;5073963;28;20550;-79
2022/09/22 12:08:52;;;;;;;2.35;1.10;;;;;;;20.93;33.46;99631.78;5073944;28;20075;-79
2022/09/22 12:11:19;;;;;;;2.10;1.20;;;;;;;20.65;33.47;99605.81;5073540;28;20557;-79